Time;durP1;ratioP1;P1;durP2;ratioP2;P2;SDS_P1;SDS_P2;PMS_P1;PMS_P2;Temp;Humidity;BMP_temperature;BMP_pressure;BME280_temperature;BME280_humidity;BME280_pressure;Samples;Min_cycle;Max_cycle;Signal;HPM_P1;HPM_P2
2023/06/13 00:00:44;;;;;;;0.63;0.63;;;;;;;24.27;33.83;100759.94;5151757;28;20097;-83
2023/06/13 00:03:34;;;;;;;0.65;0.65;;;;;;;24.24;33.58;100760.22;5167971;28;20034;-84
2023/06/13 00:06:28;;;;;;;0.55;0.47;;;;;;;24.25;33.83;100773.50;5169537;28;20046;-84
2023/06/13 00:09:19;;;;;;;0.55;0.32;;;;;;;24.19;33.61;100769.50;5157695;28;20030;-83
2023/06/13 00:12:11;;;;;;;2.28;0.68;;;;;;;24.23;34.06;100777.28;5169635;28;20490;-84
2023/06/13 00:15:05;;;;;;;1.45;0.85;;;;;;;24.20;33.97;100773.88;5145513;28;20045;-84
2023/06/13 00:17:56;;;;;;;1.75;1.20;;;;;;;24.16;34.14;100772.44;5138600;28;20022;-82
2023/06/13 00:20:48;;;;;;;0.52;0.52;;;;;;;24.16;34.14;100774.25;5169685;28;20204;-84
2023/06/13 00:23:39;;;;;;;8.98;1.50;;;;;;;24.14;34.09;100782.44;5156478;28;20026;-82
2023/06/13 00:26:30;;;;;;;1.05;1.02;;;;;;;24.08;33.91;100772.25;5174920;28;20046;-83
2023/06/13 00:29:21;;;;;;;0.52;0.52;;;;;;;24.06;34.25;100768.81;5155707;28;20951;-82
2023/06/13 00:32:12;;;;;;;0.68;0.68;;;;;;;24.04;34.01;100768.09;5158510;28;20026;-84
2023/06/13 00:35:03;;;;;;;1.30;0.43;;;;;;;23.96;34.17;100766.06;5153957;28;20041;-83
2023/06/13 00:37:56;;;;;;;0.60;0.40;;;;;;;23.97;34.10;100765.06;5171961;28;20065;-83
2023/06/13 00:40:48;;;;;;;0.73;0.73;;;;;;;23.94;33.70;100764.47;5158934;28;20037;-83
2023/06/13 00:43:39;;;;;;;0.55;0.55;;;;;;;23.77;33.95;100753.28;5153210;28;20030;-83
2023/06/13 00:46:34;;;;;;;0.35;0.35;;;;;;;23.60;34.06;100751.16;5170445;28;20052;-84
2023/06/13 00:49:25;;;;;;;1.17;1.08;;;;;;;23.66;34.26;100754.19;5154307;28;20037;-83
2023/06/13 00:52:16;;;;;;;1.15;1.05;;;;;;;23.65;34.01;100748.97;5150945;28;20058;-84
2023/06/13 00:55:07;;;;;;;0.60;0.60;;;;;;;23.61;34.26;100743.00;5168667;28;20053;-83
2023/06/13 00:58:04;;;;;;;0.38;0.38;;;;;;;23.58;34.11;100749.47;5183412;28;20030;-82
2023/06/13 01:00:57;;;;;;;0.40;0.40;;;;;;;23.55;34.54;100744.38;5174602;28;20106;-83
2023/06/13 01:03:50;;;;;;;0.30;0.30;;;;;;;23.50;34.52;100737.69;5170784;28;20134;-83
2023/06/13 01:06:44;;;;;;;1.08;1.02;;;;;;;23.49;34.39;100742.19;5173711;28;20030;-82
2023/06/13 01:09:35;;;;;;;0.65;0.65;;;;;;;23.46;34.73;100747.78;5157443;28;20054;-84
2023/06/13 01:12:36;;;;;;;2.92;1.20;;;;;;;23.39;34.96;100744.75;5166942;28;20272;-82
2023/06/13 01:15:32;;;;;;;1.50;1.13;;;;;;;23.37;34.76;100740.50;5153671;28;20061;-84
2023/06/13 01:18:25;;;;;;;0.30;0.30;;;;;;;23.32;34.71;100737.34;5156621;28;20046;-84
2023/06/13 01:21:18;;;;;;;0.52;0.52;;;;;;;23.30;35.13;100744.66;5168178;28;20134;-83
2023/06/13 01:24:20;;;;;;;0.57;0.52;;;;;;;23.27;35.44;100740.41;5168221;28;20045;-84
2023/06/13 01:27:13;;;;;;;0.40;0.40;;;;;;;23.22;35.15;100737.25;5189684;28;20515;-82
2023/06/13 01:30:04;;;;;;;0.57;0.57;;;;;;;23.17;35.47;100740.28;5173000;28;20022;-83
2023/06/13 01:32:55;;;;;;;0.73;0.73;;;;;;;23.11;35.80;100736.25;5177594;28;20118;-83
2023/06/13 01:35:47;;;;;;;0.32;0.32;;;;;;;23.07;35.75;100739.31;5189161;28;20181;-82
2023/06/13 01:38:39;;;;;;;0.73;0.73;;;;;;;23.04;35.62;100740.41;5160173;28;20015;-84
2023/06/13 01:41:30;;;;;;;0.73;0.73;;;;;;;22.98;35.72;100735.50;5169702;28;20038;-84
2023/06/13 01:44:21;;;;;;;2.85;1.15;;;;;;;22.95;36.14;100736.63;5168815;28;20062;-83
2023/06/13 01:47:15;;;;;;;1.23;1.13;;;;;;;;;;5160271;28;20040;-82
2023/06/13 01:50:27;;;;;;;0.50;0.50;;;;;;;22.87;36.43;100730.19;5154034;28;20064;-82
2023/06/13 01:53:37;;;;;;;1.83;1.42;;;;;;;22.80;35.95;100729.81;5168375;28;20066;-84
2023/06/13 01:56:31;;;;;;;0.47;0.47;;;;;;;22.74;36.36;100727.63;5158213;28;20066;-84
2023/06/13 01:59:25;;;;;;;0.60;0.60;;;;;;;22.70;36.36;100726.16;5166505;28;20089;-84
2023/06/13 02:02:16;;;;;;;1.40;0.55;;;;;;;22.65;36.75;100729.19;5153882;28;20022;-83
2023/06/13 02:05:08;;;;;;;0.55;0.55;;;;;;;22.62;36.52;100732.94;5152462;28;20038;-83
2023/06/13 02:08:01;;;;;;;1.02;1.02;;;;;;;22.53;36.87;100730.16;5153439;28;20096;-83
2023/06/13 02:10:53;;;;;;;0.82;0.82;;;;;;;22.46;36.38;100730.63;5154316;28;20062;-83
2023/06/13 02:13:44;;;;;;;0.77;0.77;;;;;;;22.42;36.54;100734.50;5149413;28;20062;-81
2023/06/13 02:16:39;;;;;;;4.50;1.30;;;;;;;22.43;37.15;100725.50;5169147;28;20030;-82
2023/06/13 02:19:30;;;;;;;2.78;1.25;;;;;;;22.39;37.17;100723.16;5162018;28;20034;-83
2023/06/13 02:22:21;;;;;;;2.22;1.45;;;;;;;22.38;37.08;100724.13;5167222;28;20147;-82
2023/06/13 02:25:11;;;;;;;0.60;0.60;;;;;;;22.33;37.36;100727.16;5150320;28;20695;-83
2023/06/13 02:28:02;;;;;;;0.38;0.38;;;;;;;22.25;37.33;100724.22;5150471;28;20038;-81
2023/06/13 02:30:53;;;;;;;0.57;0.57;;;;;;;22.26;37.93;100716.09;5164696;28;20037;-83
2023/06/13 02:33:44;;;;;;;4.85;1.15;;;;;;;22.20;37.70;100724.56;5154622;28;20025;-83
2023/06/13 02:36:36;;;;;;;0.43;0.43;;;;;;;22.19;38.12;100722.84;5150050;28;20045;-84
2023/06/13 02:39:27;;;;;;;0.22;0.22;;;;;;;22.12;37.89;100721.63;5157078;28;20033;-81
2023/06/13 02:42:18;;;;;;;1.23;0.70;;;;;;;22.08;38.18;100723.69;5186327;28;20022;-82
2023/06/13 02:45:09;;;;;;;1.52;1.05;;;;;;;22.00;37.94;100718.94;5177476;28;20097;-82
2023/06/13 02:48:00;;;;;;;0.20;0.20;;;;;;;21.97;38.34;100723.66;5172239;28;20014;-82
2023/06/13 02:50:51;;;;;;;0.60;0.60;;;;;;;21.91;38.28;100722.28;5187504;28;21625;-84
2023/06/13 02:53:41;;;;;;;1.05;0.80;;;;;;;21.83;38.69;100720.19;5166809;28;20479;-83
2023/06/13 02:56:32;;;;;;;0.68;0.68;;;;;;;21.78;38.28;100713.47;5142056;28;20068;-82
2023/06/13 02:59:26;;;;;;;0.65;0.60;;;;;;;21.75;38.51;100721.75;5154500;28;20618;-82
2023/06/13 03:02:20;;;;;;;0.75;0.75;;;;;;;21.70;38.98;100717.56;5163940;28;20041;-82
2023/06/13 03:05:14;;;;;;;1.20;1.05;;;;;;;21.66;38.79;100716.13;5152210;28;20472;-83
2023/06/13 03:08:05;;;;;;;0.63;0.63;;;;;;;21.64;39.12;100718.03;5147976;28;20090;-85
2023/06/13 03:10:56;;;;;;;4.40;0.95;;;;;;;21.59;38.97;100724.69;5139140;28;20046;-84
2023/06/13 03:13:46;;;;;;;6.07;1.02;;;;;;;21.52;39.36;100722.44;5155392;28;20046;-84
2023/06/13 03:16:38;;;;;;;0.60;0.60;;;;;;;21.50;39.52;100727.03;5166357;28;20034;-82
2023/06/13 03:19:28;;;;;;;0.73;0.73;;;;;;;21.48;39.79;100722.78;5166633;28;20037;-83
2023/06/13 03:22:19;;;;;;;1.02;1.02;;;;;;;21.45;39.85;100723.84;5164306;28;20738;-83
2023/06/13 03:25:10;;;;;;;1.48;1.05;;;;;;;21.43;40.01;100731.13;5175238;28;20036;-83
2023/06/13 03:28:01;;;;;;;1.10;1.00;;;;;;;21.35;39.89;100726.34;5169472;28;20030;-82
2023/06/13 03:30:54;;;;;;;0.80;0.73;;;;;;;21.30;39.90;100731.16;5164445;28;20282;-83
2023/06/13 03:33:45;;;;;;;0.45;0.45;;;;;;;21.28;40.05;100733.06;5184714;28;20274;-82
2023/06/13 03:36:37;;;;;;;0.20;0.20;;;;;;;21.27;40.08;100730.53;5163040;28;20038;-82
2023/06/13 03:39:28;;;;;;;0.80;0.80;;;;;;;21.22;40.92;100730.84;5153045;28;20496;-83
2023/06/13 03:42:18;;;;;;;0.60;0.60;;;;;;;21.20;40.57;100730.09;5170587;28;20118;-82
2023/06/13 03:45:09;;;;;;;1.35;1.25;;;;;;;21.16;40.47;100723.28;5161037;28;20044;-84
2023/06/13 03:48:00;;;;;;;0.70;0.70;;;;;;;21.14;40.93;100722.53;5154361;28;20093;-83
2023/06/13 03:50:51;;;;;;;0.30;0.30;;;;;;;21.09;40.35;100724.69;5158072;28;20069;-83
2023/06/13 03:53:42;;;;;;;1.08;1.02;;;;;;;21.04;40.47;100730.38;5153681;28;20040;-83
2023/06/13 03:56:32;;;;;;;0.60;0.60;;;;;;;20.98;40.70;100723.66;5164955;28;20395;-83
2023/06/13 03:59:23;;;;;;;0.40;0.40;;;;;;;20.98;40.80;100730.81;5155048;28;20060;-83
2023/06/13 04:02:14;;;;;;;0.50;0.50;;;;;;;20.95;40.83;100725.69;5127597;28;20022;-83
2023/06/13 04:05:07;;;;;;;1.17;1.10;;;;;;;20.90;40.31;100726.00;5164384;28;20060;-83
2023/06/13 04:07:58;;;;;;;0.93;0.90;;;;;;;20.88;40.55;100735.91;5152754;28;20022;-82
2023/06/13 04:10:48;;;;;;;1.10;0.82;;;;;;;20.86;40.73;100732.53;5155865;28;20045;-85
2023/06/13 04:13:41;;;;;;;1.65;1.10;;;;;;;20.83;40.58;100736.25;5148465;28;20026;-82
2023/06/13 04:16:31;;;;;;;0.52;0.52;;;;;;;20.80;40.76;100733.81;5148639;28;20069;-83
2023/06/13 04:19:23;;;;;;;0.68;0.68;;;;;;;20.75;40.62;100731.47;5157881;28;20035;-84
2023/06/13 04:22:16;;;;;;;0.50;0.50;;;;;;;20.75;40.65;100735.91;5170847;28;20019;-83
2023/06/13 04:25:08;;;;;;;1.20;1.13;;;;;;;20.75;40.61;100741.25;5172095;28;20058;-83
2023/06/13 04:27:58;;;;;;;1.17;1.08;;;;;;;20.73;40.63;100743.19;5167538;28;20117;-84
2023/06/13 04:30:51;;;;;;;0.60;0.60;;;;;;;20.70;40.62;100749.53;5153515;28;20719;-83
2023/06/13 04:33:44;;;;;;;0.45;0.45;;;;;;;20.66;40.73;100750.72;5147281;28;20025;-81
2023/06/13 04:36:35;;;;;;;1.43;1.33;;;;;;;20.67;40.59;100749.78;5138003;28;20077;-81
2023/06/13 04:39:26;;;;;;;0.30;0.30;;;;;;;20.66;40.53;100747.22;5147633;28;20046;-81
2023/06/13 04:42:24;;;;;;;0.40;0.40;;;;;;;20.52;40.70;100748.16;5164175;28;20117;-81
2023/06/13 04:45:20;;;;;;;0.60;0.60;;;;;;;20.49;40.69;100743.03;5164572;28;20663;-81
2023/06/13 04:48:11;;;;;;;0.47;0.47;;;;;;;20.42;41.11;100754.13;5148587;28;20022;-81
2023/06/13 04:51:03;;;;;;;0.68;0.68;;;;;;;20.28;40.94;100751.56;5156148;28;20718;-80
2023/06/13 04:53:57;;;;;;;0.63;0.63;;;;;;;20.41;40.78;100754.25;5169501;28;20038;-82
2023/06/13 04:56:49;;;;;;;0.88;0.88;;;;;;;20.20;41.66;100748.56;5156499;28;20044;-81
2023/06/13 04:59:41;;;;;;;0.73;0.73;;;;;;;20.01;41.97;100763.09;5156420;28;20029;-81
2023/06/13 05:02:34;;;;;;;10.98;1.40;;;;;;;20.06;41.14;100755.63;5156331;28;20053;-81
2023/06/13 05:05:25;;;;;;;;;;;;;;;20.15;41.07;100763.97;5162358;28;20050;-81
2023/06/13 05:08:21;;;;;;;0.75;0.75;;;;;;;20.12;41.08;100762.38;5152468;28;20565;-81
2023/06/13 05:11:12;;;;;;;0.50;0.50;;;;;;;20.28;41.03;100759.53;5163797;28;20073;-81
2023/06/13 05:14:03;;;;;;;0.52;0.50;;;;;;;20.19;41.31;100765.50;5147513;28;20101;-81
2023/06/13 05:16:55;;;;;;;0.50;0.50;;;;;;;20.12;41.87;100765.03;5167681;28;20068;-81
2023/06/13 05:19:46;;;;;;;0.73;0.73;;;;;;;20.29;40.92;100764.75;5149508;28;20042;-82
2023/06/13 05:22:39;;;;;;;0.85;0.85;;;;;;;20.35;41.13;100768.81;5165684;28;20557;-81
2023/06/13 05:25:30;;;;;;;0.47;0.47;;;;;;;20.34;41.13;100767.13;5162841;28;20041;-82
2023/06/13 05:28:21;;;;;;;0.65;0.47;;;;;;;20.38;41.05;100768.59;5152452;28;20285;-82
2023/06/13 05:31:12;;;;;;;0.63;0.50;;;;;;;20.35;41.12;100765.28;5161642;28;20034;-81
2023/06/13 05:34:03;;;;;;;0.85;0.82;;;;;;;20.44;41.35;100765.53;5148099;28;20414;-81
2023/06/13 05:36:54;;;;;;;0.38;0.35;;;;;;;20.35;41.33;100774.16;5162595;28;20030;-82
2023/06/13 05:39:45;;;;;;;0.77;0.52;;;;;;;20.23;41.63;100767.84;5146161;28;20124;-82
2023/06/13 05:42:37;;;;;;;1.50;1.40;;;;;;;20.37;41.52;100768.72;5132045;28;20045;-81
2023/06/13 05:45:27;;;;;;;0.75;0.75;;;;;;;20.46;40.95;100770.75;5148549;28;20033;-82
2023/06/13 05:48:18;;;;;;;1.13;1.02;;;;;;;20.54;40.74;100773.75;5149335;28;20030;-82
2023/06/13 05:51:09;;;;;;;0.45;0.45;;;;;;;20.53;41.18;100776.53;5164200;28;20100;-82
2023/06/13 05:54:00;;;;;;;3.13;1.33;;;;;;;20.60;41.11;100772.47;5160866;28;20035;-82
2023/06/13 05:56:50;;;;;;;0.90;0.77;;;;;;;20.62;41.46;100777.69;5165141;28;20096;-81
2023/06/13 05:59:41;;;;;;;0.50;0.50;;;;;;;20.69;40.89;100778.97;5162444;28;20013;-83
2023/06/13 06:02:32;;;;;;;0.45;0.45;;;;;;;20.70;40.96;100784.19;5183929;28;20592;-81
2023/06/13 06:05:24;;;;;;;2.08;0.60;;;;;;;20.80;40.96;100784.47;5146116;28;20192;-82
2023/06/13 06:08:14;;;;;;;0.63;0.63;;;;;;;20.80;40.73;100787.13;5146612;28;20077;-82
2023/06/13 06:11:05;;;;;;;0.38;0.38;;;;;;;20.80;41.03;100787.13;5161626;28;20109;-82
2023/06/13 06:13:56;;;;;;;0.68;0.68;;;;;;;20.83;42.35;100791.41;5162538;28;20034;-82
2023/06/13 06:16:47;;;;;;;0.60;0.60;;;;;;;20.89;41.50;100796.28;5154317;28;20100;-82
2023/06/13 06:19:37;;;;;;;0.85;0.85;;;;;;;20.84;41.97;100785.09;5155829;28;20033;-82
2023/06/13 06:22:29;;;;;;;0.60;0.60;;;;;;;20.84;42.05;100791.28;5162938;28;20973;-82
2023/06/13 06:25:20;;;;;;;0.70;0.70;;;;;;;20.87;41.88;100787.53;5147100;28;20031;-82
2023/06/13 06:28:11;;;;;;;2.63;0.80;;;;;;;20.95;41.50;100785.19;5151736;28;20046;-82
2023/06/13 06:31:02;;;;;;;3.50;0.70;;;;;;;21.04;41.49;100779.22;5161010;28;20043;-82
2023/06/13 06:33:53;;;;;;;0.60;0.60;;;;;;;21.07;41.54;100781.69;5142789;28;20026;-82
2023/06/13 06:36:44;;;;;;;0.40;0.40;;;;;;;21.09;41.57;100786.91;5151325;28;20038;-82
2023/06/13 06:39:35;;;;;;;0.52;0.52;;;;;;;21.15;41.14;100788.28;5161918;28;20061;-82
2023/06/13 06:42:26;;;;;;;0.52;0.45;;;;;;;21.15;41.41;100790.94;5145578;28;20554;-82
2023/06/13 06:45:17;;;;;;;0.50;0.50;;;;;;;21.15;41.94;100789.16;5145232;28;20042;-83
2023/06/13 06:48:07;;;;;;;0.85;0.70;;;;;;;21.20;41.46;100788.78;5163442;28;20030;-82
2023/06/13 06:50:58;;;;;;;0.57;0.55;;;;;;;21.19;42.33;100797.78;5162476;28;20121;-82
2023/06/13 06:53:50;;;;;;;0.60;0.60;;;;;;;21.31;41.26;100799.56;5164044;28;20045;-82
2023/06/13 06:56:41;;;;;;;1.88;0.85;;;;;;;21.32;41.17;100797.78;5170123;28;20137;-82
2023/06/13 06:59:32;;;;;;;0.73;0.55;;;;;;;21.33;41.45;100789.66;5173062;28;20034;-82
2023/06/13 07:02:23;;;;;;;0.93;0.93;;;;;;;21.31;41.79;100796.91;5176852;28;20030;-82
2023/06/13 07:05:16;;;;;;;1.35;1.25;;;;;;;21.37;41.46;100796.44;5159971;28;20042;-82
2023/06/13 07:08:07;;;;;;;0.40;0.40;;;;;;;21.37;41.24;100795.63;5150837;28;20551;-82
2023/06/13 07:10:58;;;;;;;0.30;0.30;;;;;;;21.42;41.20;100797.97;5152305;28;20045;-82
2023/06/13 07:13:50;;;;;;;0.63;0.63;;;;;;;21.52;40.99;100802.53;5167202;28;20038;-82
2023/06/13 07:16:41;;;;;;;1.35;1.25;;;;;;;21.50;40.75;100800.94;5152580;28;20041;-82
2023/06/13 07:19:32;;;;;;;0.40;0.40;;;;;;;21.52;40.47;100805.19;5150702;28;20061;-82
2023/06/13 07:22:22;;;;;;;1.60;0.93;;;;;;;21.55;40.16;100804.09;5151563;28;20121;-82
2023/06/13 07:25:13;;;;;;;0.65;0.47;;;;;;;21.46;40.14;100802.97;5151861;28;20747;-82
2023/06/13 07:28:04;;;;;;;0.60;0.60;;;;;;;21.49;40.40;100804.56;5166231;28;20112;-82
2023/06/13 07:30:57;;;;;;;0.93;0.85;;;;;;;21.51;40.15;100805.31;5155757;28;20042;-82
2023/06/13 07:33:49;;;;;;;0.60;0.60;;;;;;;21.63;39.72;100804.44;5133386;28;20026;-82
2023/06/13 07:36:40;;;;;;;0.65;0.57;;;;;;;21.49;39.41;100801.88;5154277;28;20037;-84
2023/06/13 07:39:31;;;;;;;0.70;0.70;;;;;;;21.54;39.95;100802.41;5149426;28;20082;-82
2023/06/13 07:42:21;;;;;;;0.50;0.50;;;;;;;21.56;39.21;100805.81;5154117;28;20034;-82
2023/06/13 07:45:14;;;;;;;0.82;0.82;;;;;;;21.67;38.97;100808.59;5151204;28;20518;-82
2023/06/13 07:48:05;;;;;;;2.00;0.60;;;;;;;21.76;38.73;100803.56;5163390;28;20430;-83
2023/06/13 07:50:55;;;;;;;1.23;1.13;;;;;;;21.81;39.68;100806.72;5147064;28;20042;-81
2023/06/13 07:53:46;;;;;;;0.75;0.75;;;;;;;21.83;39.27;100807.47;5155122;28;20045;-81
2023/06/13 07:56:37;;;;;;;0.85;0.70;;;;;;;21.98;39.30;100803.66;5152184;28;20035;-82
2023/06/13 07:59:28;;;;;;;0.90;0.77;;;;;;;21.97;38.85;100806.47;5172990;28;20062;-81
2023/06/13 08:02:19;;;;;;;0.47;0.47;;;;;;;22.00;38.87;100806.22;5158929;28;20069;-81
2023/06/13 08:05:11;;;;;;;0.63;0.63;;;;;;;21.97;39.60;100811.81;5155449;28;20117;-82
2023/06/13 08:08:02;;;;;;;3.80;0.55;;;;;;;22.02;39.59;100813.16;5167366;28;20088;-82
2023/06/13 08:10:53;;;;;;;0.30;0.30;;;;;;;22.05;39.04;100814.75;5137866;28;20030;-82
2023/06/13 08:13:44;;;;;;;1.23;1.02;;;;;;;22.12;38.82;100808.00;5169257;28;20026;-82
2023/06/13 08:16:36;;;;;;;1.02;0.50;;;;;;;22.27;38.39;100816.66;5160926;28;20047;-81
2023/06/13 08:19:27;;;;;;;0.50;0.50;;;;;;;22.27;38.47;100819.34;5169206;28;20493;-81
2023/06/13 08:22:18;;;;;;;0.40;0.40;;;;;;;22.24;39.01;100821.38;5167472;28;20022;-82
2023/06/13 08:25:09;;;;;;;0.43;0.43;;;;;;;22.33;38.64;100816.22;5166849;28;20048;-81
2023/06/13 08:28:00;;;;;;;0.50;0.50;;;;;;;22.35;38.07;100817.94;5157036;28;20010;-81
2023/06/13 08:30:52;;;;;;;0.63;0.63;;;;;;;22.36;38.06;100808.91;5147372;28;20154;-82
2023/06/13 08:33:43;;;;;;;1.17;0.90;;;;;;;22.47;37.83;100807.19;5172584;28;20034;-81
2023/06/13 08:36:36;;;;;;;0.55;0.55;;;;;;;22.52;36.99;100809.50;5161576;28;20070;-82
2023/06/13 08:39:27;;;;;;;9.73;1.15;;;;;;;22.53;37.48;100805.84;5153490;28;20038;-81
2023/06/13 08:42:18;;;;;;;0.30;0.30;;;;;;;22.70;37.91;100804.56;5152305;28;20612;-81
2023/06/13 08:45:09;;;;;;;0.65;0.65;;;;;;;22.64;37.85;100805.06;5156570;28;20123;-82
2023/06/13 08:48:01;;;;;;;0.50;0.50;;;;;;;22.62;37.76;100813.16;5140314;28;20019;-82
2023/06/13 08:50:52;;;;;;;1.27;1.10;;;;;;;22.73;37.84;100804.31;5151346;28;20417;-82
2023/06/13 08:53:51;;;;;;;0.73;0.47;;;;;;;22.84;37.50;100808.84;5168040;28;20101;-82
2023/06/13 08:56:43;;;;;;;0.30;0.30;;;;;;;22.85;37.54;100801.66;5168372;28;20050;-82
2023/06/13 08:59:36;;;;;;;0.55;0.55;;;;;;;22.91;36.38;100802.06;5170989;28;20065;-81
2023/06/13 09:02:27;;;;;;;;;;;;;;;22.89;36.18;100795.97;5150111;28;20041;-82
2023/06/13 09:05:18;;;;;;;0.38;0.38;;;;;;;22.98;36.34;100798.88;5163885;28;20439;-82
2023/06/13 09:08:10;;;;;;;0.70;0.65;;;;;;;22.98;35.45;100788.19;5168237;28;20049;-82
2023/06/13 09:11:01;;;;;;;0.30;0.30;;;;;;;23.03;35.39;100788.66;5166285;28;20585;-82
2023/06/13 09:13:55;;;;;;;0.30;0.30;;;;;;;23.10;35.63;100793.41;5152861;28;20063;-82
2023/06/13 09:16:50;;;;;;;0.45;0.45;;;;;;;23.14;37.15;100794.03;5148921;28;20065;-81
2023/06/13 09:19:40;;;;;;;0.20;0.20;;;;;;;23.20;36.89;100793.56;5170112;28;20674;-82
2023/06/13 09:22:36;;;;;;;0.20;0.20;;;;;;;23.29;36.59;100792.00;5167336;28;20033;-82
2023/06/13 09:25:29;;;;;;;1.02;0.50;;;;;;;23.39;35.21;100782.22;5167258;28;20046;-82
2023/06/13 09:28:30;;;;;;;0.63;0.63;;;;;;;23.40;36.10;100791.13;5148144;28;20068;-82
2023/06/13 09:31:21;;;;;;;1.13;0.57;;;;;;;23.49;36.07;100794.88;5154164;28;20064;-82
2023/06/13 09:34:15;;;;;;;0.80;0.80;;;;;;;23.48;36.16;100786.00;5151745;28;20034;-82
2023/06/13 09:37:07;;;;;;;0.22;0.22;;;;;;;23.58;36.37;100778.06;5170616;28;20116;-82
2023/06/13 09:40:05;;;;;;;0.73;0.73;;;;;;;23.67;35.81;100789.88;5167036;28;20042;-82
2023/06/13 09:42:56;;;;;;;2.25;0.40;;;;;;;23.70;35.72;100782.44;5150014;28;20780;-82
2023/06/13 09:45:48;;;;;;;1.98;0.75;;;;;;;23.80;35.84;100785.19;5168346;28;20045;-82
2023/06/13 09:48:44;;;;;;;0.40;0.40;;;;;;;23.88;36.10;100785.41;5167985;28;20069;-82
2023/06/13 09:51:35;;;;;;;0.60;0.60;;;;;;;23.95;34.96;100776.91;5135796;28;20050;-81
2023/06/13 09:54:29;;;;;;;0.20;0.20;;;;;;;23.96;35.16;100781.28;5168390;28;20052;-82
2023/06/13 09:57:21;;;;;;;0.20;0.20;;;;;;;23.98;35.75;100764.09;5167086;28;20038;-82
2023/06/13 10:00:13;;;;;;;0.30;0.30;;;;;;;24.07;35.88;100765.19;5165068;28;20042;-82
2023/06/13 10:03:04;;;;;;;0.40;0.40;;;;;;;24.10;36.03;100761.38;5163939;28;20170;-82
2023/06/13 10:05:58;;;;;;;0.45;0.40;;;;;;;24.23;36.06;100764.72;5150018;28;20041;-82
2023/06/13 10:08:48;;;;;;;0.30;0.30;;;;;;;24.26;35.74;100758.25;5162751;28;20040;-82
2023/06/13 10:11:50;;;;;;;0.55;0.55;;;;;;;24.33;35.78;100756.75;5147632;28;20041;-82
2023/06/13 10:14:44;;;;;;;0.28;0.28;;;;;;;24.35;35.59;100747.59;5140961;28;20046;-81
2023/06/13 10:17:40;;;;;;;0.65;0.50;;;;;;;24.58;34.88;100751.97;5167882;28;20034;-82
2023/06/13 10:20:33;;;;;;;0.70;0.57;;;;;;;24.50;35.70;100747.25;5148999;28;20044;-82
2023/06/13 10:23:28;;;;;;;0.20;0.20;;;;;;;24.55;35.23;100752.22;5165816;28;20026;-82
2023/06/13 10:26:30;;;;;;;0.50;0.50;;;;;;;24.64;34.62;100759.50;5140369;28;20041;-82
2023/06/13 10:29:49;;;;;;;2.30;0.98;;;;;;;24.65;33.44;100753.97;5167613;28;20023;-82
2023/06/13 10:33:04;;;;;;;0.30;0.30;;;;;;;24.69;34.38;100754.59;5143717;28;20036;-82
2023/06/13 10:36:17;;;;;;;0.70;0.70;;;;;;;24.77;34.63;100738.69;5142878;28;20069;-82
2023/06/13 10:39:23;;;;;;;0.20;0.20;;;;;;;24.85;34.23;100742.53;5158152;28;20023;-82
2023/06/13 10:42:29;;;;;;;0.52;0.50;;;;;;;24.94;33.74;100736.34;5164923;28;20045;-82
2023/06/13 10:45:24;;;;;;;1.02;0.93;;;;;;;24.99;33.40;100739.50;5163303;28;20505;-82
2023/06/13 10:48:14;;;;;;;0.40;0.40;;;;;;;24.95;32.94;100738.06;5163526;28;20044;-82
2023/06/13 10:51:09;;;;;;;1.02;1.02;;;;;;;25.07;33.48;100733.44;5162472;28;20041;-82
2023/06/13 10:54:03;;;;;;;1.08;0.93;;;;;;;25.17;33.38;100737.00;5144454;28;20042;-82
2023/06/13 10:57:00;;;;;;;0.77;0.73;;;;;;;25.23;34.33;100731.09;5163013;28;20420;-82
2023/06/13 10:59:51;;;;;;;0.52;0.52;;;;;;;25.40;33.69;100715.34;5162394;28;20052;-82
2023/06/13 11:02:45;;;;;;;4.00;0.68;;;;;;;25.45;32.93;100724.69;5145981;28;20463;-81
2023/06/13 11:05:45;;;;;;;0.40;0.40;;;;;;;25.47;32.99;100718.31;5161810;28;20657;-82
2023/06/13 11:08:37;;;;;;;0.43;0.43;;;;;;;25.51;32.53;100709.84;5148425;28;20768;-82
2023/06/13 11:11:29;;;;;;;0.60;0.60;;;;;;;25.60;32.23;100711.69;5147997;28;20781;-82
2023/06/13 11:14:24;;;;;;;0.57;0.45;;;;;;;25.76;32.85;100694.16;5142930;28;20027;-81
2023/06/13 11:17:15;;;;;;;1.02;0.57;;;;;;;25.86;32.38;100694.16;5152691;28;20038;-82
2023/06/13 11:20:06;;;;;;;0.55;0.55;;;;;;;25.78;32.07;100692.19;5158799;28;20070;-82
2023/06/13 11:22:57;;;;;;;0.52;0.52;;;;;;;25.82;31.11;100690.91;5163143;28;20090;-82
2023/06/13 11:25:51;;;;;;;0.32;0.32;;;;;;;25.87;31.46;100690.47;5152189;28;20037;-84
2023/06/13 11:28:42;;;;;;;0.47;0.47;;;;;;;25.97;31.01;100695.84;5163733;28;20679;-83
2023/06/13 11:31:35;;;;;;;1.50;0.63;;;;;;;26.01;30.95;100695.41;5154447;28;20045;-82
2023/06/13 11:34:31;;;;;;;0.63;0.50;;;;;;;26.08;32.07;100693.03;5151049;28;20037;-83
2023/06/13 11:37:36;;;;;;;0.70;0.57;;;;;;;26.22;31.17;100691.75;5163493;28;20042;-83
2023/06/13 11:40:39;;;;;;;1.30;0.93;;;;;;;26.19;30.50;100682.13;5144577;28;20081;-82
2023/06/13 11:43:30;;;;;;;2.00;1.15;;;;;;;26.43;30.59;100686.19;5166976;28;20038;-82
2023/06/13 11:46:21;;;;;;;0.85;0.85;;;;;;;26.42;30.50;100683.63;5168328;28;20036;-81
2023/06/13 11:49:15;;;;;;;0.90;0.88;;;;;;;26.71;30.90;100679.00;5166198;28;20121;-82
2023/06/13 11:52:15;;;;;;;0.63;0.63;;;;;;;26.68;30.23;100678.44;5138109;28;20541;-82
2023/06/13 11:55:17;;;;;;;0.68;0.68;;;;;;;26.77;31.09;100671.34;5166101;28;20046;-82
2023/06/13 11:58:08;;;;;;;0.40;0.40;;;;;;;26.96;31.21;100671.25;5148123;28;20226;-81
2023/06/13 12:00:59;;;;;;;0.43;0.40;;;;;;;26.95;31.97;100669.56;5151388;28;20034;-83
2023/06/13 12:03:50;;;;;;;0.30;0.30;;;;;;;27.14;30.50;100667.75;5167104;28;20026;-82
2023/06/13 12:06:41;;;;;;;0.50;0.50;;;;;;;27.26;31.47;100654.91;5177791;28;20097;-82
2023/06/13 12:09:32;;;;;;;1.40;0.93;;;;;;;27.32;30.14;100659.69;5169039;28;20046;-82
2023/06/13 12:12:23;;;;;;;0.82;0.82;;;;;;;27.30;29.60;100659.00;5146343;28;20045;-82
2023/06/13 12:15:14;;;;;;;0.50;0.50;;;;;;;27.54;28.77;100661.13;5153842;28;20035;-82
2023/06/13 12:18:04;;;;;;;0.75;0.55;;;;;;;27.38;28.70;100660.94;5167398;28;20516;-83
2023/06/13 12:20:57;;;;;;;0.60;0.60;;;;;;;27.61;28.80;100662.19;5151607;28;20038;-82
2023/06/13 12:23:48;;;;;;;0.45;0.45;;;;;;;27.58;28.97;100661.66;5150413;28;20030;-82
2023/06/13 12:26:43;;;;;;;0.40;0.40;;;;;;;27.70;28.60;100659.56;5168060;28;20046;-83
2023/06/13 12:29:34;;;;;;;0.65;0.60;;;;;;;27.89;29.95;100653.16;5164501;28;20114;-83
2023/06/13 12:32:25;;;;;;;1.77;0.63;;;;;;;28.09;28.94;100643.91;5166777;28;20121;-83
2023/06/13 12:35:23;;;;;;;0.38;0.38;;;;;;;28.16;29.42;100641.41;5152421;28;20120;-83
2023/06/13 12:38:15;;;;;;;0.35;0.35;;;;;;;28.25;29.27;100643.13;5162980;28;20034;-83
2023/06/13 12:41:14;;;;;;;0.22;0.22;;;;;;;28.17;29.07;100645.78;5162498;28;20038;-83
2023/06/13 12:44:07;;;;;;;0.30;0.30;;;;;;;28.35;29.74;100634.09;5153223;28;20041;-84
2023/06/13 12:46:59;;;;;;;;;;;;;;;28.36;28.18;100635.78;5147917;28;20666;-84
2023/06/13 12:49:50;;;;;;;1.73;1.08;;;;;;;28.45;28.20;100624.03;5184013;28;19925;-83
2023/06/13 12:52:41;;;;;;;0.30;0.30;;;;;;;28.66;28.03;100626.31;5161729;28;20035;-83
2023/06/13 12:55:33;;;;;;;0.63;0.63;;;;;;;28.66;28.39;100620.06;5158185;28;20038;-84
2023/06/13 12:58:27;;;;;;;0.47;0.47;;;;;;;28.50;27.36;100624.38;5161949;28;20077;-85
2023/06/13 13:01:17;;;;;;;0.35;0.35;;;;;;;28.69;27.87;100622.44;5161439;28;20049;-84
2023/06/13 13:04:10;;;;;;;0.43;0.43;;;;;;;28.92;26.93;100616.47;5136944;28;20489;-83
2023/06/13 13:07:02;;;;;;;0.63;0.63;;;;;;;28.99;28.54;100622.91;5151834;28;20022;-84
2023/06/13 13:09:55;;;;;;;1.15;0.40;;;;;;;28.93;27.28;100618.16;5168059;28;20039;-83
2023/06/13 13:12:46;;;;;;;0.40;0.40;;;;;;;29.04;26.67;100610.59;5165752;28;20405;-84
2023/06/13 13:15:37;;;;;;;0.70;0.70;;;;;;;29.04;26.85;100607.06;5165467;28;20026;-83
2023/06/13 13:18:28;;;;;;;0.82;0.65;;;;;;;29.04;26.96;100604.34;5150253;28;20034;-84
2023/06/13 13:21:18;;;;;;;1.00;1.00;;;;;;;29.11;27.35;100599.97;5146751;28;20034;-83
2023/06/13 13:24:09;;;;;;;0.63;0.50;;;;;;;29.02;27.04;100596.41;5166582;28;20076;-83